sensor_id;sensor_type;location;lat;lon;timestamp;temperature;humidity
13198;DHT22;6664;52.514;13.440;2024-03-22T00:00:39;8.50;30.90
13198;DHT22;6664;52.514;13.440;2024-03-22T00:03:25;8.50;29.30
13198;DHT22;6664;52.514;13.440;2024-03-22T00:06:10;8.40;29.30
13198;DHT22;6664;52.514;13.440;2024-03-22T00:08:57;8.20;30.30
13198;DHT22;6664;52.514;13.440;2024-03-22T00:11:42;8.20;33.60
13198;DHT22;6664;52.514;13.440;2024-03-22T00:14:27;8.00;33.60
13198;DHT22;6664;52.514;13.440;2024-03-22T00:17:14;7.90;36.80
13198;DHT22;6664;52.514;13.440;2024-03-22T00:19:58;7.80;40.70
13198;DHT22;6664;52.514;13.440;2024-03-22T00:22:45;8.00;40.60
13198;DHT22;6664;52.514;13.440;2024-03-22T00:25:32;8.10;39.00
13198;DHT22;6664;52.514;13.440;2024-03-22T00:28:17;8.20;36.70
13198;DHT22;6664;52.514;13.440;2024-03-22T00:31:02;8.20;35.40
13198;DHT22;6664;52.514;13.440;2024-03-22T00:33:48;8.40;34.10
13198;DHT22;6664;52.514;13.440;2024-03-22T00:36:33;8.50;32.60
13198;DHT22;6664;52.514;13.440;2024-03-22T00:39:19;8.40;30.20
13198;DHT22;6664;52.514;13.440;2024-03-22T00:42:06;8.40;30.20
13198;DHT22;6664;52.514;13.440;2024-03-22T00:44:50;8.40;29.80
13198;DHT22;6664;52.514;13.440;2024-03-22T00:47:35;8.40;30.00
13198;DHT22;6664;52.514;13.440;2024-03-22T00:50:21;8.40;29.60
13198;DHT22;6664;52.514;13.440;2024-03-22T00:53:06;8.40;30.20
13198;DHT22;6664;52.514;13.440;2024-03-22T00:55:54;8.40;30.30
13198;DHT22;6664;52.514;13.440;2024-03-22T00:58:40;8.50;30.40
13198;DHT22;6664;52.514;13.440;2024-03-22T01:01:24;8.50;29.90
13198;DHT22;6664;52.514;13.440;2024-03-22T01:04:11;8.50;30.20
13198;DHT22;6664;52.514;13.440;2024-03-22T01:06:56;8.60;30.30
13198;DHT22;6664;52.514;13.440;2024-03-22T01:09:41;8.50;30.80
13198;DHT22;6664;52.514;13.440;2024-03-22T01:12:25;8.50;32.00
13198;DHT22;6664;52.514;13.440;2024-03-22T01:15:10;8.40;33.10
13198;DHT22;6664;52.514;13.440;2024-03-22T01:17:55;8.40;35.20
13198;DHT22;6664;52.514;13.440;2024-03-22T01:20:39;8.40;35.60
13198;DHT22;6664;52.514;13.440;2024-03-22T01:23:24;8.30;36.60
13198;DHT22;6664;52.514;13.440;2024-03-22T01:26:08;8.30;38.00
13198;DHT22;6664;52.514;13.440;2024-03-22T01:28:54;8.30;40.00
13198;DHT22;6664;52.514;13.440;2024-03-22T01:31:38;8.30;40.70
13198;DHT22;6664;52.514;13.440;2024-03-22T01:34:25;8.30;41.20
13198;DHT22;6664;52.514;13.440;2024-03-22T01:37:10;8.20;42.20
13198;DHT22;6664;52.514;13.440;2024-03-22T01:39:56;8.20;44.80
13198;DHT22;6664;52.514;13.440;2024-03-22T01:42:42;8.30;46.20
13198;DHT22;6664;52.514;13.440;2024-03-22T01:45:31;8.20;49.10
13198;DHT22;6664;52.514;13.440;2024-03-22T01:48:20;8.20;51.20
13198;DHT22;6664;52.514;13.440;2024-03-22T01:51:05;8.20;52.00
13198;DHT22;6664;52.514;13.440;2024-03-22T01:53:49;8.20;53.40
13198;DHT22;6664;52.514;13.440;2024-03-22T01:56:38;8.20;55.10
13198;DHT22;6664;52.514;13.440;2024-03-22T01:59:23;8.20;54.90
13198;DHT22;6664;52.514;13.440;2024-03-22T02:02:07;8.20;55.60
13198;DHT22;6664;52.514;13.440;2024-03-22T02:04:53;8.20;56.10
13198;DHT22;6664;52.514;13.440;2024-03-22T02:07:37;8.20;56.80
13198;DHT22;6664;52.514;13.440;2024-03-22T02:10:22;8.10;58.80
13198;DHT22;6664;52.514;13.440;2024-03-22T02:13:09;8.10;59.80
13198;DHT22;6664;52.514;13.440;2024-03-22T02:15:53;8.20;59.60
13198;DHT22;6664;52.514;13.440;2024-03-22T02:18:38;8.20;59.80
13198;DHT22;6664;52.514;13.440;2024-03-22T02:21:24;8.10;60.10
13198;DHT22;6664;52.514;13.440;2024-03-22T02:24:09;8.10;61.10
13198;DHT22;6664;52.514;13.440;2024-03-22T02:26:54;8.10;61.70
13198;DHT22;6664;52.514;13.440;2024-03-22T02:29:41;8.10;61.70
13198;DHT22;6664;52.514;13.440;2024-03-22T02:32:25;8.10;62.50
13198;DHT22;6664;52.514;13.440;2024-03-22T02:35:10;8.10;62.80
13198;DHT22;6664;52.514;13.440;2024-03-22T02:37:57;8.20;62.40
13198;DHT22;6664;52.514;13.440;2024-03-22T02:40:43;8.20;61.30
13198;DHT22;6664;52.514;13.440;2024-03-22T02:43:28;8.20;61.30
13198;DHT22;6664;52.514;13.440;2024-03-22T02:46:15;8.20;59.80
13198;DHT22;6664;52.514;13.440;2024-03-22T02:48:59;8.30;58.60
13198;DHT22;6664;52.514;13.440;2024-03-22T02:51:46;8.30;57.20
13198;DHT22;6664;52.514;13.440;2024-03-22T02:54:31;8.30;56.20
13198;DHT22;6664;52.514;13.440;2024-03-22T02:57:15;8.30;56.20
13198;DHT22;6664;52.514;13.440;2024-03-22T03:00:00;8.30;56.30
13198;DHT22;6664;52.514;13.440;2024-03-22T03:02:45;8.30;55.70
13198;DHT22;6664;52.514;13.440;2024-03-22T03:05:30;8.40;55.80
13198;DHT22;6664;52.514;13.440;2024-03-22T03:08:14;8.40;54.60
13198;DHT22;6664;52.514;13.440;2024-03-22T03:10:59;8.40;53.10
13198;DHT22;6664;52.514;13.440;2024-03-22T03:13:43;8.30;50.00
13198;DHT22;6664;52.514;13.440;2024-03-22T03:16:30;8.30;49.60
13198;DHT22;6664;52.514;13.440;2024-03-22T03:19:15;8.30;50.20
13198;DHT22;6664;52.514;13.440;2024-03-22T03:21:59;8.30;46.50
13198;DHT22;6664;52.514;13.440;2024-03-22T03:24:44;8.30;46.00
13198;DHT22;6664;52.514;13.440;2024-03-22T03:27:29;8.40;46.10
13198;DHT22;6664;52.514;13.440;2024-03-22T03:30:16;8.40;45.50
13198;DHT22;6664;52.514;13.440;2024-03-22T03:33:01;8.40;45.50
13198;DHT22;6664;52.514;13.440;2024-03-22T03:35:48;8.40;43.30
13198;DHT22;6664;52.514;13.440;2024-03-22T03:38:35;8.40;41.60
13198;DHT22;6664;52.514;13.440;2024-03-22T03:41:21;8.40;40.70
13198;DHT22;6664;52.514;13.440;2024-03-22T03:44:06;8.40;41.10
13198;DHT22;6664;52.514;13.440;2024-03-22T03:46:53;8.40;39.90
13198;DHT22;6664;52.514;13.440;2024-03-22T03:49:38;8.40;38.20
13198;DHT22;6664;52.514;13.440;2024-03-22T03:52:22;8.40;37.10
13198;DHT22;6664;52.514;13.440;2024-03-22T03:55:07;8.50;35.70
13198;DHT22;6664;52.514;13.440;2024-03-22T03:57:51;8.50;35.10
13198;DHT22;6664;52.514;13.440;2024-03-22T04:00:36;8.50;34.40
13198;DHT22;6664;52.514;13.440;2024-03-22T04:03:24;8.40;35.30
13198;DHT22;6664;52.514;13.440;2024-03-22T04:06:10;8.50;35.70
13198;DHT22;6664;52.514;13.440;2024-03-22T04:08:55;8.40;35.60
13198;DHT22;6664;52.514;13.440;2024-03-22T04:11:39;8.50;35.30
13198;DHT22;6664;52.514;13.440;2024-03-22T04:14:27;8.40;33.10
13198;DHT22;6664;52.514;13.440;2024-03-22T04:17:12;8.40;33.40
13198;DHT22;6664;52.514;13.440;2024-03-22T04:19:56;8.50;33.40
13198;DHT22;6664;52.514;13.440;2024-03-22T04:22:41;8.40;32.40
13198;DHT22;6664;52.514;13.440;2024-03-22T04:25:28;8.40;32.10
13198;DHT22;6664;52.514;13.440;2024-03-22T04:28:12;8.40;31.70
13198;DHT22;6664;52.514;13.440;2024-03-22T04:31:05;8.40;31.40
13198;DHT22;6664;52.514;13.440;2024-03-22T04:33:49;8.40;31.20
13198;DHT22;6664;52.514;13.440;2024-03-22T04:36:34;8.50;31.50
13198;DHT22;6664;52.514;13.440;2024-03-22T04:39:22;8.50;29.90
13198;DHT22;6664;52.514;13.440;2024-03-22T04:42:09;8.50;29.80
13198;DHT22;6664;52.514;13.440;2024-03-22T04:44:53;8.60;29.40
13198;DHT22;6664;52.514;13.440;2024-03-22T04:47:38;8.60;28.20
13198;DHT22;6664;52.514;13.440;2024-03-22T04:50:24;8.60;27.70
13198;DHT22;6664;52.514;13.440;2024-03-22T04:53:12;8.60;27.60
13198;DHT22;6664;52.514;13.440;2024-03-22T04:55:56;8.60;27.20
13198;DHT22;6664;52.514;13.440;2024-03-22T04:58:41;8.70;26.20
13198;DHT22;6664;52.514;13.440;2024-03-22T05:01:25;8.70;26.20
13198;DHT22;6664;52.514;13.440;2024-03-22T05:04:12;8.70;25.10
13198;DHT22;6664;52.514;13.440;2024-03-22T05:06:57;8.70;25.60
13198;DHT22;6664;52.514;13.440;2024-03-22T05:09:41;8.80;25.70
13198;DHT22;6664;52.514;13.440;2024-03-22T05:12:25;8.70;24.60
13198;DHT22;6664;52.514;13.440;2024-03-22T05:15:10;8.80;24.30
13198;DHT22;6664;52.514;13.440;2024-03-22T05:17:56;8.80;23.60
13198;DHT22;6664;52.514;13.440;2024-03-22T05:20:41;8.80;23.70
13198;DHT22;6664;52.514;13.440;2024-03-22T05:23:26;8.80;23.60
13198;DHT22;6664;52.514;13.440;2024-03-22T05:26:11;8.80;23.80
13198;DHT22;6664;52.514;13.440;2024-03-22T05:28:55;8.80;21.90
13198;DHT22;6664;52.514;13.440;2024-03-22T05:31:50;8.90;23.10
13198;DHT22;6664;52.514;13.440;2024-03-22T05:34:36;8.90;22.80
13198;DHT22;6664;52.514;13.440;2024-03-22T05:37:21;9.00;22.00
13198;DHT22;6664;52.514;13.440;2024-03-22T05:40:09;9.00;20.80
13198;DHT22;6664;52.514;13.440;2024-03-22T05:42:54;9.10;21.20
13198;DHT22;6664;52.514;13.440;2024-03-22T05:45:38;9.00;18.70
13198;DHT22;6664;52.514;13.440;2024-03-22T05:48:24;9.10;19.60
13198;DHT22;6664;52.514;13.440;2024-03-22T05:51:11;9.10;18.60
13198;DHT22;6664;52.514;13.440;2024-03-22T05:53:56;9.20;17.80
13198;DHT22;6664;52.514;13.440;2024-03-22T05:56:41;9.20;16.00
13198;DHT22;6664;52.514;13.440;2024-03-22T05:59:25;9.40;15.60
13198;DHT22;6664;52.514;13.440;2024-03-22T06:02:11;9.40;13.40
13198;DHT22;6664;52.514;13.440;2024-03-22T06:04:56;9.50;11.80
13198;DHT22;6664;52.514;13.440;2024-03-22T06:07:41;9.60;10.40
13198;DHT22;6664;52.514;13.440;2024-03-22T06:10:28;9.80;9.10
13198;DHT22;6664;52.514;13.440;2024-03-22T06:13:17;9.80;7.40
13198;DHT22;6664;52.514;13.440;2024-03-22T06:16:04;9.80;6.60
13198;DHT22;6664;52.514;13.440;2024-03-22T06:18:48;9.90;5.50
13198;DHT22;6664;52.514;13.440;2024-03-22T06:21:33;9.90;4.30
13198;DHT22;6664;52.514;13.440;2024-03-22T06:24:20;9.80;3.20
13198;DHT22;6664;52.514;13.440;2024-03-22T06:27:05;9.70;4.80
13198;DHT22;6664;52.514;13.440;2024-03-22T06:29:51;9.90;4.50
13198;DHT22;6664;52.514;13.440;2024-03-22T06:32:36;9.80;4.50
13198;DHT22;6664;52.514;13.440;2024-03-22T06:35:21;9.80;4.40
13198;DHT22;6664;52.514;13.440;2024-03-22T06:38:05;9.90;3.20
13198;DHT22;6664;52.514;13.440;2024-03-22T06:40:50;10.00;2.40
13198;DHT22;6664;52.514;13.440;2024-03-22T06:43:35;10.10;2.90
13198;DHT22;6664;52.514;13.440;2024-03-22T06:46:19;10.00;1.00
13198;DHT22;6664;52.514;13.440;2024-03-22T06:49:07;10.10;1.00
13198;DHT22;6664;52.514;13.440;2024-03-22T06:51:51;10.20;1.00
13198;DHT22;6664;52.514;13.440;2024-03-22T06:54:38;10.10;1.00
13198;DHT22;6664;52.514;13.440;2024-03-22T06:57:24;10.10;1.00
13198;DHT22;6664;52.514;13.440;2024-03-22T07:00:09;10.10;1.00
13198;DHT22;6664;52.514;13.440;2024-03-22T07:02:54;10.10;1.00
13198;DHT22;6664;52.514;13.440;2024-03-22T07:05:43;10.30;1.00
13198;DHT22;6664;52.514;13.440;2024-03-22T07:08:28;10.40;1.00
13198;DHT22;6664;52.514;13.440;2024-03-22T07:11:14;10.50;1.00
13198;DHT22;6664;52.514;13.440;2024-03-22T07:13:59;10.60;1.00
13198;DHT22;6664;52.514;13.440;2024-03-22T07:16:44;10.80;1.00
13198;DHT22;6664;52.514;13.440;2024-03-22T07:19:29;10.70;1.00
13198;DHT22;6664;52.514;13.440;2024-03-22T07:22:13;10.90;1.00
13198;DHT22;6664;52.514;13.440;2024-03-22T07:24:58;10.90;1.00
13198;DHT22;6664;52.514;13.440;2024-03-22T07:27:43;11.00;1.00
13198;DHT22;6664;52.514;13.440;2024-03-22T07:30:27;10.90;1.00
13198;DHT22;6664;52.514;13.440;2024-03-22T07:33:12;11.00;1.00
13198;DHT22;6664;52.514;13.440;2024-03-22T07:36:02;10.90;1.00
13198;DHT22;6664;52.514;13.440;2024-03-22T07:38:47;10.90;1.00
13198;DHT22;6664;52.514;13.440;2024-03-22T07:41:33;10.90;1.00
13198;DHT22;6664;52.514;13.440;2024-03-22T07:44:18;11.00;1.00
13198;DHT22;6664;52.514;13.440;2024-03-22T07:47:04;11.00;1.00
13198;DHT22;6664;52.514;13.440;2024-03-22T07:49:48;11.20;1.00
13198;DHT22;6664;52.514;13.440;2024-03-22T07:52:33;11.30;1.00
13198;DHT22;6664;52.514;13.440;2024-03-22T07:55:18;11.50;1.00
13198;DHT22;6664;52.514;13.440;2024-03-22T07:58:03;11.60;1.00
13198;DHT22;6664;52.514;13.440;2024-03-22T08:00:48;11.40;1.00
13198;DHT22;6664;52.514;13.440;2024-03-22T08:03:33;11.30;1.00
13198;DHT22;6664;52.514;13.440;2024-03-22T08:06:17;11.30;1.00
13198;DHT22;6664;52.514;13.440;2024-03-22T08:09:02;11.50;1.00
13198;DHT22;6664;52.514;13.440;2024-03-22T08:11:50;11.80;1.00
13198;DHT22;6664;52.514;13.440;2024-03-22T08:14:35;11.90;1.00
13198;DHT22;6664;52.514;13.440;2024-03-22T08:17:19;11.90;1.00
13198;DHT22;6664;52.514;13.440;2024-03-22T08:20:04;12.00;1.00
13198;DHT22;6664;52.514;13.440;2024-03-22T08:22:49;11.90;1.00
13198;DHT22;6664;52.514;13.440;2024-03-22T08:25:35;11.90;1.00
13198;DHT22;6664;52.514;13.440;2024-03-22T08:28:22;11.80;1.00
13198;DHT22;6664;52.514;13.440;2024-03-22T08:31:07;12.10;1.00
13198;DHT22;6664;52.514;13.440;2024-03-22T08:33:52;12.30;1.00
13198;DHT22;6664;52.514;13.440;2024-03-22T08:36:37;12.40;1.00
13198;DHT22;6664;52.514;13.440;2024-03-22T08:39:24;12.00;1.00
13198;DHT22;6664;52.514;13.440;2024-03-22T08:42:09;12.00;1.00
13198;DHT22;6664;52.514;13.440;2024-03-22T08:44:53;12.20;1.00
13198;DHT22;6664;52.514;13.440;2024-03-22T08:47:38;12.10;1.00
13198;DHT22;6664;52.514;13.440;2024-03-22T08:50:24;12.50;1.00
13198;DHT22;6664;52.514;13.440;2024-03-22T08:53:11;12.70;1.00
13198;DHT22;6664;52.514;13.440;2024-03-22T08:55:56;12.80;1.00
13198;DHT22;6664;52.514;13.440;2024-03-22T08:58:40;13.10;1.00
13198;DHT22;6664;52.514;13.440;2024-03-22T09:01:25;13.40;1.00
13198;DHT22;6664;52.514;13.440;2024-03-22T09:04:10;13.40;1.00
13198;DHT22;6664;52.514;13.440;2024-03-22T09:06:54;13.40;1.00
13198;DHT22;6664;52.514;13.440;2024-03-22T09:09:42;13.60;1.00
13198;DHT22;6664;52.514;13.440;2024-03-22T09:12:26;13.70;1.00
13198;DHT22;6664;52.514;13.440;2024-03-22T09:15:11;14.00;1.00
13198;DHT22;6664;52.514;13.440;2024-03-22T09:17:56;13.60;1.00
13198;DHT22;6664;52.514;13.440;2024-03-22T09:20:40;13.70;1.00
13198;DHT22;6664;52.514;13.440;2024-03-22T09:23:25;14.00;1.00
13198;DHT22;6664;52.514;13.440;2024-03-22T09:26:10;13.90;1.00
13198;DHT22;6664;52.514;13.440;2024-03-22T09:28:57;14.30;1.00
13198;DHT22;6664;52.514;13.440;2024-03-22T09:31:41;13.90;1.00
13198;DHT22;6664;52.514;13.440;2024-03-22T09:34:26;13.80;1.00
13198;DHT22;6664;52.514;13.440;2024-03-22T09:37:13;14.10;1.00
13198;DHT22;6664;52.514;13.440;2024-03-22T09:40:00;13.90;1.00
13198;DHT22;6664;52.514;13.440;2024-03-22T09:42:47;14.30;1.00
13198;DHT22;6664;52.514;13.440;2024-03-22T09:45:33;14.40;1.00
13198;DHT22;6664;52.514;13.440;2024-03-22T09:48:18;14.70;1.00
13198;DHT22;6664;52.514;13.440;2024-03-22T09:51:03;14.30;1.00
13198;DHT22;6664;52.514;13.440;2024-03-22T09:53:48;14.00;1.00
13198;DHT22;6664;52.514;13.440;2024-03-22T09:56:34;13.70;1.00
13198;DHT22;6664;52.514;13.440;2024-03-22T09:59:19;13.60;1.00
13198;DHT22;6664;52.514;13.440;2024-03-22T10:02:03;14.10;1.00
13198;DHT22;6664;52.514;13.440;2024-03-22T10:04:48;13.90;1.00
13198;DHT22;6664;52.514;13.440;2024-03-22T10:07:35;13.80;1.00
13198;DHT22;6664;52.514;13.440;2024-03-22T10:10:20;13.80;1.00
13198;DHT22;6664;52.514;13.440;2024-03-22T10:13:07;14.10;1.00
13198;DHT22;6664;52.514;13.440;2024-03-22T10:15:51;14.50;1.00
13198;DHT22;6664;52.514;13.440;2024-03-22T10:18:36;14.70;1.00
13198;DHT22;6664;52.514;13.440;2024-03-22T10:21:21;14.20;1.00
13198;DHT22;6664;52.514;13.440;2024-03-22T10:24:07;14.80;1.00
13198;DHT22;6664;52.514;13.440;2024-03-22T10:26:52;14.90;1.00
13198;DHT22;6664;52.514;13.440;2024-03-22T10:29:37;14.80;1.00
13198;DHT22;6664;52.514;13.440;2024-03-22T10:32:24;14.60;1.00
13198;DHT22;6664;52.514;13.440;2024-03-22T10:35:13;14.70;1.00
13198;DHT22;6664;52.514;13.440;2024-03-22T10:38:01;14.90;1.00
13198;DHT22;6664;52.514;13.440;2024-03-22T10:40:48;15.40;1.00
13198;DHT22;6664;52.514;13.440;2024-03-22T10:43:33;15.60;1.00
13198;DHT22;6664;52.514;13.440;2024-03-22T10:46:20;15.60;1.00
13198;DHT22;6664;52.514;13.440;2024-03-22T10:49:07;15.40;1.00
13198;DHT22;6664;52.514;13.440;2024-03-22T10:51:59;16.30;1.00
13198;DHT22;6664;52.514;13.440;2024-03-22T10:54:46;15.70;1.00
13198;DHT22;6664;52.514;13.440;2024-03-22T10:57:32;16.00;1.00
13198;DHT22;6664;52.514;13.440;2024-03-22T11:00:34;15.90;1.00
13198;DHT22;6664;52.514;13.440;2024-03-22T11:03:24;15.80;1.00
13198;DHT22;6664;52.514;13.440;2024-03-22T11:06:10;16.20;1.00
13198;DHT22;6664;52.514;13.440;2024-03-22T11:08:55;16.60;1.00
13198;DHT22;6664;52.514;13.440;2024-03-22T11:11:43;16.10;1.00
13198;DHT22;6664;52.514;13.440;2024-03-22T11:14:28;16.70;1.00
13198;DHT22;6664;52.514;13.440;2024-03-22T11:17:13;16.70;1.00
13198;DHT22;6664;52.514;13.440;2024-03-22T11:19:57;16.50;1.00
13198;DHT22;6664;52.514;13.440;2024-03-22T11:22:42;16.50;1.00
13198;DHT22;6664;52.514;13.440;2024-03-22T11:25:27;16.20;1.00
13198;DHT22;6664;52.514;13.440;2024-03-22T11:28:12;16.00;1.00
13198;DHT22;6664;52.514;13.440;2024-03-22T11:30:56;16.10;1.00
13198;DHT22;6664;52.514;13.440;2024-03-22T11:33:41;15.00;1.00
13198;DHT22;6664;52.514;13.440;2024-03-22T11:36:26;14.50;1.00
13198;DHT22;6664;52.514;13.440;2024-03-22T11:39:10;14.40;1.00
13198;DHT22;6664;52.514;13.440;2024-03-22T11:41:55;14.10;1.00
13198;DHT22;6664;52.514;13.440;2024-03-22T11:44:44;14.00;1.00
13198;DHT22;6664;52.514;13.440;2024-03-22T11:47:30;13.80;1.00
13198;DHT22;6664;52.514;13.440;2024-03-22T11:50:18;13.80;1.00
13198;DHT22;6664;52.514;13.440;2024-03-22T11:53:07;13.70;1.00
13198;DHT22;6664;52.514;13.440;2024-03-22T11:55:52;13.60;1.00
13198;DHT22;6664;52.514;13.440;2024-03-22T11:58:37;13.60;1.00
13198;DHT22;6664;52.514;13.440;2024-03-22T12:01:25;13.70;1.00
13198;DHT22;6664;52.514;13.440;2024-03-22T12:04:09;13.70;1.00
13198;DHT22;6664;52.514;13.440;2024-03-22T12:07:01;13.60;1.00
13198;DHT22;6664;52.514;13.440;2024-03-22T12:09:49;13.60;1.00
13198;DHT22;6664;52.514;13.440;2024-03-22T12:12:33;13.50;1.00
13198;DHT22;6664;52.514;13.440;2024-03-22T12:15:17;13.50;1.00
13198;DHT22;6664;52.514;13.440;2024-03-22T12:18:03;13.30;1.00
13198;DHT22;6664;52.514;13.440;2024-03-22T12:20:50;13.10;1.00
13198;DHT22;6664;52.514;13.440;2024-03-22T12:23:35;13.00;1.00
13198;DHT22;6664;52.514;13.440;2024-03-22T12:26:19;13.00;1.00
13198;DHT22;6664;52.514;13.440;2024-03-22T12:29:04;12.90;1.00
13198;DHT22;6664;52.514;13.440;2024-03-22T12:31:48;12.80;1.00
13198;DHT22;6664;52.514;13.440;2024-03-22T12:34:33;12.70;1.00
13198;DHT22;6664;52.514;13.440;2024-03-22T12:37:17;12.70;1.00
13198;DHT22;6664;52.514;13.440;2024-03-22T12:40:04;12.60;1.80
13198;DHT22;6664;52.514;13.440;2024-03-22T12:42:52;12.50;3.20
13198;DHT22;6664;52.514;13.440;2024-03-22T12:45:39;12.60;4.70
13198;DHT22;6664;52.514;13.440;2024-03-22T12:48:25;12.60;3.70
13198;DHT22;6664;52.514;13.440;2024-03-22T12:51:10;12.40;5.40
13198;DHT22;6664;52.514;13.440;2024-03-22T12:53:56;12.40;8.60
13198;DHT22;6664;52.514;13.440;2024-03-22T12:56:41;12.40;6.70
13198;DHT22;6664;52.514;13.440;2024-03-22T12:59:26;12.50;12.00
13198;DHT22;6664;52.514;13.440;2024-03-22T13:02:11;12.50;11.40
13198;DHT22;6664;52.514;13.440;2024-03-22T13:04:57;12.50;13.70
13198;DHT22;6664;52.514;13.440;2024-03-22T13:07:42;12.40;12.40
13198;DHT22;6664;52.514;13.440;2024-03-22T13:10:27;12.30;15.30
13198;DHT22;6664;52.514;13.440;2024-03-22T13:13:11;12.30;15.90
13198;DHT22;6664;52.514;13.440;2024-03-22T13:16:01;12.10;21.30
13198;DHT22;6664;52.514;13.440;2024-03-22T13:18:48;12.10;21.90
13198;DHT22;6664;52.514;13.440;2024-03-22T13:21:32;12.00;17.60
13198;DHT22;6664;52.514;13.440;2024-03-22T13:24:23;12.10;16.40
13198;DHT22;6664;52.514;13.440;2024-03-22T13:27:11;12.20;13.00
13198;DHT22;6664;52.514;13.440;2024-03-22T13:29:56;12.40;12.50
13198;DHT22;6664;52.514;13.440;2024-03-22T13:32:44;12.30;12.30
13198;DHT22;6664;52.514;13.440;2024-03-22T13:35:29;12.50;10.60
13198;DHT22;6664;52.514;13.440;2024-03-22T13:38:13;12.50;7.70
13198;DHT22;6664;52.514;13.440;2024-03-22T13:40:59;12.60;6.10
13198;DHT22;6664;52.514;13.440;2024-03-22T13:43:49;12.80;5.30
13198;DHT22;6664;52.514;13.440;2024-03-22T13:46:34;12.80;1.50
13198;DHT22;6664;52.514;13.440;2024-03-22T13:49:20;12.80;1.90
13198;DHT22;6664;52.514;13.440;2024-03-22T13:52:08;12.60;1.00
13198;DHT22;6664;52.514;13.440;2024-03-22T13:54:53;12.60;1.00
13198;DHT22;6664;52.514;13.440;2024-03-22T13:57:38;12.80;1.00
13198;DHT22;6664;52.514;13.440;2024-03-22T14:00:26;13.00;1.00
13198;DHT22;6664;52.514;13.440;2024-03-22T14:03:11;13.10;1.00
13198;DHT22;6664;52.514;13.440;2024-03-22T14:05:55;13.10;1.00
13198;DHT22;6664;52.514;13.440;2024-03-22T14:08:40;13.30;1.00
13198;DHT22;6664;52.514;13.440;2024-03-22T14:11:27;13.10;1.00
13198;DHT22;6664;52.514;13.440;2024-03-22T14:14:12;13.40;1.00
13198;DHT22;6664;52.514;13.440;2024-03-22T14:16:59;13.50;1.00
13198;DHT22;6664;52.514;13.440;2024-03-22T14:19:46;13.60;1.40
13198;DHT22;6664;52.514;13.440;2024-03-22T14:22:30;13.60;1.70
13198;DHT22;6664;52.514;13.440;2024-03-22T14:25:15;13.60;3.10
13198;DHT22;6664;52.514;13.440;2024-03-22T14:27:59;13.60;4.20
13198;DHT22;6664;52.514;13.440;2024-03-22T14:30:43;13.30;5.40
13198;DHT22;6664;52.514;13.440;2024-03-22T14:33:28;13.20;8.20
13198;DHT22;6664;52.514;13.440;2024-03-22T14:36:12;13.20;8.50
13198;DHT22;6664;52.514;13.440;2024-03-22T14:38:57;13.10;8.10
13198;DHT22;6664;52.514;13.440;2024-03-22T14:41:46;13.10;8.60
13198;DHT22;6664;52.514;13.440;2024-03-22T14:44:30;12.80;9.40
13198;DHT22;6664;52.514;13.440;2024-03-22T14:47:16;12.80;11.10
13198;DHT22;6664;52.514;13.440;2024-03-22T14:50:00;12.90;11.60
13198;DHT22;6664;52.514;13.440;2024-03-22T14:52:48;12.90;12.40
13198;DHT22;6664;52.514;13.440;2024-03-22T14:55:32;12.80;12.00
13198;DHT22;6664;52.514;13.440;2024-03-22T14:58:17;12.80;11.40
13198;DHT22;6664;52.514;13.440;2024-03-22T15:01:03;12.80;10.70
13198;DHT22;6664;52.514;13.440;2024-03-22T15:03:48;12.70;12.70
13198;DHT22;6664;52.514;13.440;2024-03-22T15:06:33;12.70;12.20
13198;DHT22;6664;52.514;13.440;2024-03-22T15:09:18;12.70;13.60
13198;DHT22;6664;52.514;13.440;2024-03-22T15:12:03;12.60;12.70
13198;DHT22;6664;52.514;13.440;2024-03-22T15:14:51;12.60;14.40
13198;DHT22;6664;52.514;13.440;2024-03-22T15:17:37;12.60;15.00
13198;DHT22;6664;52.514;13.440;2024-03-22T15:20:25;12.50;14.60
13198;DHT22;6664;52.514;13.440;2024-03-22T15:23:11;12.50;15.60
13198;DHT22;6664;52.514;13.440;2024-03-22T15:25:56;12.40;16.00
13198;DHT22;6664;52.514;13.440;2024-03-22T15:28:43;12.40;16.70
13198;DHT22;6664;52.514;13.440;2024-03-22T15:31:27;12.40;18.00
13198;DHT22;6664;52.514;13.440;2024-03-22T15:34:12;12.30;20.40
13198;DHT22;6664;52.514;13.440;2024-03-22T15:36:59;12.30;21.60
13198;DHT22;6664;52.514;13.440;2024-03-22T15:39:43;12.30;22.30
13198;DHT22;6664;52.514;13.440;2024-03-22T15:42:28;12.20;23.40
13198;DHT22;6664;52.514;13.440;2024-03-22T15:45:12;12.30;24.20
13198;DHT22;6664;52.514;13.440;2024-03-22T15:47:57;12.30;23.90
13198;DHT22;6664;52.514;13.440;2024-03-22T15:50:44;12.30;24.50
13198;DHT22;6664;52.514;13.440;2024-03-22T15:53:28;12.30;25.00
13198;DHT22;6664;52.514;13.440;2024-03-22T15:56:15;12.20;27.70
13198;DHT22;6664;52.514;13.440;2024-03-22T15:59:03;12.10;28.60
13198;DHT22;6664;52.514;13.440;2024-03-22T16:01:51;12.00;31.00
13198;DHT22;6664;52.514;13.440;2024-03-22T16:04:36;12.00;34.70
13198;DHT22;6664;52.514;13.440;2024-03-22T16:07:22;12.00;35.70
13198;DHT22;6664;52.514;13.440;2024-03-22T16:10:07;12.00;36.30
13198;DHT22;6664;52.514;13.440;2024-03-22T16:12:53;11.90;37.70
13198;DHT22;6664;52.514;13.440;2024-03-22T16:15:38;11.90;38.00
13198;DHT22;6664;52.514;13.440;2024-03-22T16:18:23;11.80;43.00
13198;DHT22;6664;52.514;13.440;2024-03-22T16:21:08;11.70;43.80
13198;DHT22;6664;52.514;13.440;2024-03-22T16:23:55;11.70;45.40
13198;DHT22;6664;52.514;13.440;2024-03-22T16:26:44;11.70;42.40
13198;DHT22;6664;52.514;13.440;2024-03-22T16:29:29;11.70;44.90
13198;DHT22;6664;52.514;13.440;2024-03-22T16:32:14;11.70;44.00
13198;DHT22;6664;52.514;13.440;2024-03-22T16:35:01;11.60;43.60
13198;DHT22;6664;52.514;13.440;2024-03-22T16:37:46;11.60;47.50
13198;DHT22;6664;52.514;13.440;2024-03-22T16:40:33;11.50;47.90
13198;DHT22;6664;52.514;13.440;2024-03-22T16:43:17;11.50;50.50
13198;DHT22;6664;52.514;13.440;2024-03-22T16:46:04;11.50;52.30
13198;DHT22;6664;52.514;13.440;2024-03-22T16:48:49;11.40;55.80
13198;DHT22;6664;52.514;13.440;2024-03-22T16:51:37;11.40;58.10
13198;DHT22;6664;52.514;13.440;2024-03-22T16:54:22;11.40;62.50
13198;DHT22;6664;52.514;13.440;2024-03-22T16:57:07;11.40;63.20
13198;DHT22;6664;52.514;13.440;2024-03-22T16:59:53;11.40;65.60
13198;DHT22;6664;52.514;13.440;2024-03-22T17:02:37;11.30;65.40
13198;DHT22;6664;52.514;13.440;2024-03-22T17:05:25;11.40;67.50
13198;DHT22;6664;52.514;13.440;2024-03-22T17:08:09;11.30;77.00
13198;DHT22;6664;52.514;13.440;2024-03-22T17:10:56;11.30;75.00
13198;DHT22;6664;52.514;13.440;2024-03-22T17:13:41;11.30;74.80
13198;DHT22;6664;52.514;13.440;2024-03-22T17:16:28;11.30;76.40
13198;DHT22;6664;52.514;13.440;2024-03-22T17:19:12;11.30;76.50
13198;DHT22;6664;52.514;13.440;2024-03-22T17:22:01;11.30;77.50
13198;DHT22;6664;52.514;13.440;2024-03-22T17:24:48;11.30;78.10
13198;DHT22;6664;52.514;13.440;2024-03-22T17:27:33;11.20;81.30
13198;DHT22;6664;52.514;13.440;2024-03-22T17:30:18;11.20;78.90
13198;DHT22;6664;52.514;13.440;2024-03-22T17:33:03;11.20;81.90
13198;DHT22;6664;52.514;13.440;2024-03-22T17:35:47;11.20;84.80
13198;DHT22;6664;52.514;13.440;2024-03-22T17:38:32;11.20;89.40